Time;durP1;ratioP1;P1;durP2;ratioP2;P2;SDS_P1;SDS_P2;PMS_P1;PMS_P2;Temp;Humidity;BMP_temperature;BMP_pressure;BME280_temperature;BME280_humidity;BME280_pressure;Samples;Min_cycle;Max_cycle;Signal;HPM_P1;HPM_P2
2023/04/27 00:04:25;;;;;;;2.90;1.63;;;14.60;64.30;;;;;;10371538;28;20074;-56
2023/04/27 00:09:26;;;;;;;2.28;1.40;;;14.60;64.40;;;;;;10370986;28;20129;-57
2023/04/27 00:14:27;;;;;;;2.70;1.65;;;14.60;64.30;;;;;;10371104;28;20056;-57
2023/04/27 00:19:29;;;;;;;2.63;1.80;;;14.60;64.30;;;;;;10369602;28;20022;-56
2023/04/27 00:24:30;;;;;;;4.35;1.58;;;14.60;64.20;;;;;;10370785;28;20056;-56
2023/04/27 00:29:31;;;;;;;3.38;1.77;;;14.60;64.20;;;;;;10380138;28;20129;-56
2023/04/27 00:34:31;;;;;;;2.80;1.80;;;14.60;64.00;;;;;;10375319;28;20018;-56
2023/04/27 00:39:34;;;;;;;1.65;1.33;;;14.60;64.00;;;;;;10369620;28;20213;-56
2023/04/27 00:44:35;;;;;;;1.65;1.10;;;14.50;63.90;;;;;;10370397;28;20508;-57
2023/04/27 00:49:36;;;;;;;2.45;1.23;;;14.60;64.00;;;;;;10368219;28;20040;-55
2023/04/27 00:54:37;;;;;;;2.35;1.50;;;14.50;63.80;;;;;;10382938;28;20033;-57
2023/04/27 00:59:39;;;;;;;2.55;1.77;;;14.50;63.70;;;;;;10381324;28;20684;-56
2023/04/27 01:04:40;;;;;;;2.38;1.60;;;14.50;63.70;;;;;;10369191;28;20058;-56
2023/04/27 01:09:41;;;;;;;3.38;1.75;;;14.50;63.60;;;;;;10368230;28;20072;-55
2023/04/27 01:14:41;;;;;;;2.53;1.63;;;14.50;63.40;;;;;;10368830;28;20018;-56
2023/04/27 01:19:43;;;;;;;2.25;1.52;;;14.40;63.30;;;;;;10380606;28;20097;-55
2023/04/27 01:24:44;;;;;;;2.17;1.48;;;14.40;63.30;;;;;;10378940;28;20075;-56
2023/04/27 01:29:45;;;;;;;2.58;1.90;;;14.40;63.30;;;;;;10395663;28;20031;-56
2023/04/27 01:34:46;;;;;;;2.20;1.52;;;14.40;63.20;;;;;;10370960;28;20576;-56
2023/04/27 01:39:46;;;;;;;3.58;1.63;;;14.40;63.00;;;;;;10383204;28;20022;-56
2023/04/27 01:44:47;;;;;;;2.42;1.30;;;14.40;63.10;;;;;;10367729;28;20101;-56
2023/04/27 01:49:48;;;;;;;2.97;1.63;;;14.40;63.00;;;;;;10367346;28;20101;-57
2023/04/27 01:54:49;;;;;;;2.25;1.25;;;14.40;63.00;;;;;;10369609;28;20052;-56
2023/04/27 01:59:49;;;;;;;2.95;1.95;;;14.30;62.80;;;;;;10375354;28;20428;-56
2023/04/27 02:04:50;;;;;;;2.55;1.40;;;14.30;62.80;;;;;;10379446;28;20996;-57
2023/04/27 02:09:51;;;;;;;2.00;1.58;;;14.30;62.80;;;;;;10393241;28;20414;-56
2023/04/27 02:14:51;;;;;;;2.30;1.60;;;14.30;62.80;;;;;;10407447;28;20404;-56
2023/04/27 02:19:52;;;;;;;2.25;1.63;;;14.30;62.70;;;;;;10406988;28;20049;-56
2023/04/27 02:24:53;;;;;;;2.33;1.55;;;14.30;62.60;;;;;;10395442;28;20046;-57
2023/04/27 02:29:53;;;;;;;3.90;1.65;;;14.30;62.60;;;;;;10366033;28;20487;-55
2023/04/27 02:34:55;;;;;;;1.90;1.40;;;14.20;62.50;;;;;;10366641;28;20089;-55
2023/04/27 02:39:56;;;;;;;2.60;1.60;;;14.20;62.50;;;;;;10365531;28;20034;-54
2023/04/27 02:44:57;;;;;;;2.28;1.38;;;14.20;62.70;;;;;;10365477;28;20501;-55
2023/04/27 02:49:57;;;;;;;3.67;2.15;;;14.20;62.50;;;;;;10365086;28;20656;-55
2023/04/27 02:54:58;;;;;;;3.75;2.25;;;14.30;62.30;;;;;;10364765;28;20017;-55
2023/04/27 02:59:59;;;;;;;4.25;2.00;;;14.50;62.00;;;;;;10365403;28;20026;-55
2023/04/27 03:05:00;;;;;;;3.80;1.83;;;14.80;60.90;;;;;;10364612;28;20046;-56
2023/04/27 03:10:01;;;;;;;2.38;1.48;;;15.10;59.90;;;;;;10363295;28;20057;-55
2023/04/27 03:15:02;;;;;;;2.28;1.50;;;15.30;59.20;;;;;;10364484;28;20121;-54
2023/04/27 03:20:08;;;;;;;3.03;1.55;;;15.50;58.70;;;;;;10364343;28;20022;-55
2023/04/27 03:25:09;;;;;;;2.75;1.30;;;15.70;58.20;;;;;;10364445;28;20029;-55
2023/04/27 03:30:10;;;;;;;2.33;1.63;;;15.90;57.60;;;;;;10366686;28;20053;-55
2023/04/27 03:35:11;;;;;;;2.28;1.40;;;16.10;57.10;;;;;;10363896;28;20025;-56
2023/04/27 03:40:13;;;;;;;3.42;1.35;;;16.20;56.70;;;;;;10363926;28;20022;-54
2023/04/27 03:45:15;;;;;;;3.13;1.75;;;16.30;56.50;;;;;;10363750;28;20375;-60
2023/04/27 03:50:16;;;;;;;2.67;1.30;;;16.40;56.40;;;;;;10362176;28;20493;-56
2023/04/27 03:55:17;;;;;;;3.00;1.45;;;16.40;56.30;;;;;;10363123;28;20022;-55
2023/04/27 04:00:17;;;;;;;2.33;1.30;;;16.50;56.30;;;;;;10362569;28;20022;-54
2023/04/27 04:05:18;;;;;;;1.75;1.10;;;16.50;56.20;;;;;;10371987;28;20046;-55
2023/04/27 04:10:19;;;;;;;1.98;1.27;;;16.50;56.10;;;;;;10376284;28;20022;-59
2023/04/27 04:15:20;;;;;;;2.35;1.15;;;16.60;56.00;;;;;;10373811;28;20101;-55
2023/04/27 04:20:21;;;;;;;3.88;2.20;;;16.60;56.00;;;;;;10400516;28;20376;-56
2023/04/27 04:25:21;;;;;;;2.47;1.30;;;16.60;56.00;;;;;;10384504;28;20014;-55
2023/04/27 04:30:22;;;;;;;2.08;1.30;;;16.60;55.90;;;;;;10389825;28;20450;-55
2023/04/27 04:35:23;;;;;;;2.13;0.95;;;16.70;55.90;;;;;;10381504;28;20018;-56
2023/04/27 04:40:24;;;;;;;1.75;1.00;;;16.70;55.90;;;;;;10393192;28;20026;-56
2023/04/27 04:45:25;;;;;;;1.80;1.20;;;16.70;55.80;;;;;;10396349;28;20022;-55
2023/04/27 04:50:26;;;;;;;1.92;0.80;;;16.70;55.70;;;;;;10388883;28;20057;-56
2023/04/27 04:55:27;;;;;;;1.13;0.70;;;16.80;55.60;;;;;;10387645;28;20020;-54
2023/04/27 05:00:28;;;;;;;2.83;1.40;;;16.80;55.60;;;;;;10401123;28;20177;-55
2023/04/27 05:05:29;;;;;;;9.82;1.55;;;16.80;55.60;;;;;;10408405;28;20560;-56
2023/04/27 05:10:30;;;;;;;7.18;1.70;;;16.80;56.40;;;;;;10370571;28;20041;-56
2023/04/27 05:15:30;;;;;;;12.85;1.98;;;16.90;56.90;;;;;;10369206;28;20113;-54
2023/04/27 05:20:37;;;;;;;7.38;1.50;;;16.90;57.40;;;;;;10368271;28;20034;-57
2023/04/27 05:25:40;;;;;;;9.73;1.90;;;16.90;58.80;;;;;;10368302;28;20689;-56
2023/04/27 05:30:41;;;;;;;11.27;2.88;;;16.80;59.50;;;;;;10384424;28;20022;-56
2023/04/27 05:35:42;;;;;;;4.95;1.60;;;16.70;59.80;;;;;;10371593;28;20025;-55
2023/04/27 05:40:42;;;;;;;9.23;1.85;;;16.60;60.40;;;;;;10368153;28;20160;-55
2023/04/27 05:45:43;;;;;;;10.73;2.72;;;16.50;60.80;;;;;;10367622;28;20014;-55
2023/04/27 05:50:44;;;;;;;9.20;1.98;;;16.50;60.10;;;;;;10379347;28;20072;-56
2023/04/27 05:55:44;;;;;;;15.10;3.55;;;16.40;60.20;;;;;;10381966;28;20012;-53
2023/04/27 06:00:45;;;;;;;15.23;3.08;;;16.50;60.10;;;;;;10396649;28;20141;-55
2023/04/27 06:05:46;;;;;;;19.42;3.42;;;16.30;59.60;;;;;;10388603;28;20125;-56
2023/04/27 06:10:48;;;;;;;16.08;4.40;;;15.80;61.00;;;;;;10405792;28;20025;-56
2023/04/27 06:15:49;;;;;;;11.80;3.88;;;15.90;59.10;;;;;;10377819;28;20033;-53
2023/04/27 06:20:50;;;;;;;20.98;4.10;;;15.90;58.30;;;;;;10366717;28;20474;-57
2023/04/27 06:25:51;;;;;;;14.10;4.10;;;16.00;57.60;;;;;;10372625;28;20431;-54
2023/04/27 06:30:52;;;;;;;18.30;3.20;;;16.00;58.00;;;;;;10382852;28;20109;-56
2023/04/27 06:35:53;;;;;;;13.20;3.30;;;16.20;58.30;;;;;;10379803;28;20018;-55
2023/04/27 06:40:53;;;;;;;16.17;3.40;;;16.30;58.30;;;;;;10377865;28;20049;-53
2023/04/27 06:45:54;;;;;;;16.70;3.78;;;16.40;58.40;;;;;;10383013;28;20021;-50
2023/04/27 06:50:55;;;;;;;25.58;4.00;;;16.50;58.30;;;;;;10378100;28;20062;-53
2023/04/27 06:55:56;;;;;;;19.23;3.78;;;16.40;58.20;;;;;;10365367;28;20026;-52
2023/04/27 07:00:56;;;;;;;15.80;3.60;;;16.30;58.40;;;;;;10381714;28;20040;-51
2023/04/27 07:05:58;;;;;;;10.93;2.88;;;16.30;58.40;;;;;;10404306;28;20116;-47
2023/04/27 07:10:58;;;;;;;16.48;4.10;;;16.30;58.50;;;;;;10385117;28;20070;-52
2023/04/27 07:16:00;;;;;;;15.32;3.05;;;16.40;58.70;;;;;;10379686;28;20084;-55
2023/04/27 07:21:01;;;;;;;21.38;3.70;;;16.30;59.10;;;;;;10380048;28;20556;-55
2023/04/27 07:26:01;;;;;;;13.95;3.15;;;16.40;58.70;;;;;;10375838;28;20026;-54
2023/04/27 07:31:06;;;;;;;15.30;3.70;;;16.40;58.90;;;;;;10388388;28;20026;-55
2023/04/27 07:36:06;;;;;;;18.65;3.88;;;16.30;59.90;;;;;;10371390;28;20026;-54
2023/04/27 07:41:07;;;;;;;15.00;3.50;;;16.00;60.80;;;;;;10362125;28;20034;-54
2023/04/27 07:46:08;;;;;;;10.45;2.60;;;16.10;58.50;;;;;;10384018;28;20037;-53
2023/04/27 07:51:09;;;;;;;12.63;2.67;;;16.00;59.00;;;;;;10361281;28;20109;-54
2023/04/27 07:56:10;;;;;;;10.50;2.72;;;16.00;58.80;;;;;;10360338;28;20848;-53
2023/04/27 08:01:10;;;;;;;11.68;3.10;;;15.90;59.60;;;;;;10398134;28;20101;-55
2023/04/27 08:06:11;;;;;;;8.68;3.28;;;15.70;60.30;;;;;;10399730;28;20188;-52
2023/04/27 08:11:12;;;;;;;4.93;2.45;;;15.60;60.60;;;;;;10400776;28;20024;-54
2023/04/27 08:16:12;;;;;;;8.27;2.78;;;15.60;60.80;;;;;;10404544;28;20490;-54
2023/04/27 08:21:13;;;;;;;9.27;2.33;;;15.50;61.00;;;;;;10409944;28;20106;-52
2023/04/27 08:26:15;;;;;;;6.85;2.17;;;15.40;61.00;;;;;;10396013;28;20100;-54
2023/04/27 08:31:15;;;;;;;4.85;2.05;;;15.40;61.00;;;;;;10385653;28;20081;-54
2023/04/27 08:36:16;;;;;;;7.65;2.83;;;15.40;61.10;;;;;;10368339;28;20071;-54
2023/04/27 08:41:21;;;;;;;4.70;2.17;;;15.30;61.10;;;;;;10393220;28;20112;-53
2023/04/27 08:46:26;;;;;;;8.15;3.53;;;15.40;61.30;;;;;;10379618;28;20108;-55
2023/04/27 08:51:27;;;;;;;5.50;2.38;;;15.30;61.30;;;;;;10366634;28;20018;-55
2023/04/27 08:56:29;;;;;;;5.30;1.77;;;15.30;61.40;;;;;;10368745;28;20037;-54
2023/04/27 09:01:31;;;;;;;4.50;2.03;;;15.30;61.50;;;;;;10375197;28;20088;-55
2023/04/27 09:06:35;;;;;;;8.85;2.08;;;15.30;61.40;;;;;;10367291;28;20100;-54
2023/04/27 09:11:38;;;;;;;3.33;1.80;;;15.30;61.30;;;;;;10366240;28;20025;-53
2023/04/27 09:16:38;;;;;;;2.88;1.67;;;15.30;61.30;;;;;;10367049;28;20018;-55
2023/04/27 09:21:39;;;;;;;4.13;2.10;;;15.30;61.40;;;;;;10366706;28;20112;-52
2023/04/27 09:26:42;;;;;;;3.13;1.83;;;15.20;61.40;;;;;;10378193;28;20163;-53
2023/04/27 09:31:43;;;;;;;2.53;1.48;;;15.20;61.40;;;;;;10393604;28;20014;-55
2023/04/27 09:36:44;;;;;;;3.47;1.65;;;15.20;61.50;;;;;;10366058;28;20099;-55
2023/04/27 09:41:46;;;;;;;3.45;1.88;;;15.20;61.50;;;;;;10364726;28;20033;-54
2023/04/27 09:46:47;;;;;;;3.13;1.58;;;15.20;61.50;;;;;;10365860;28;20065;-55
2023/04/27 09:51:48;;;;;;;3.17;1.90;;;15.20;61.50;;;;;;10363516;28;20019;-53
2023/04/27 09:57:21;;;;;;;3.60;1.65;;;15.20;61.50;;;;;;10369154;28;20469;-54
2023/04/27 10:02:23;;;;;;;1.80;1.45;;;15.20;61.60;;;;;;10391537;28;20014;-54
2023/04/27 10:07:26;;;;;;;4.15;1.60;;;15.20;61.60;;;;;;10391150;28;20172;-52
2023/04/27 10:12:37;;;;;;;2.45;1.25;;;15.20;61.60;;;;;;10405397;28;20029;-54
2023/04/27 10:17:45;;;;;;;2.90;1.40;;;15.20;61.50;;;;;;10390971;28;20022;-55
2023/04/27 10:22:51;;;;;;;1.88;1.10;;;15.20;61.50;;;;;;10405362;28;20377;-55
2023/04/27 10:28:00;;;;;;;1.98;1.23;;;15.30;61.60;;;;;;10368658;28;20034;-55
2023/04/27 10:33:09;;;;;;;1.80;1.30;;;15.30;61.60;;;;;;10366270;28;20364;-54
2023/04/27 10:38:19;;;;;;;2.63;1.37;;;15.30;61.60;;;;;;10363333;28;20026;-56
2023/04/27 10:43:23;;;;;;;;;;;15.30;61.70;;;;;;10364438;28;20113;-55
2023/04/27 10:48:24;;;;;;;2.60;1.60;;;15.30;61.70;;;;;;10363195;28;19920;-54
2023/04/27 10:53:25;;;;;;;2.28;1.52;;;15.30;61.70;;;;;;10361967;28;20268;-54
2023/04/27 10:58:26;;;;;;;2.08;1.50;;;15.30;61.70;;;;;;10372834;28;20389;-52
2023/04/27 11:03:27;;;;;;;3.80;1.30;;;15.30;61.70;;;;;;10363164;28;20069;-56
2023/04/27 11:08:29;;;;;;;3.15;1.30;;;15.30;61.70;;;;;;10363009;28;20540;-53
2023/04/27 11:13:32;;;;;;;2.60;1.50;;;15.30;61.70;;;;;;10362754;28;20054;-54
2023/04/27 11:18:37;;;;;;;1.25;0.68;;;15.30;61.70;;;;;;10362555;28;20041;-53
2023/04/27 11:23:38;;;;;;;1.95;1.15;;;15.30;61.70;;;;;;10362345;28;20030;-55
2023/04/27 11:28:40;;;;;;;1.65;1.23;;;15.30;61.70;;;;;;10377909;28;20400;-53
2023/04/27 11:33:51;;;;;;;4.55;1.30;;;15.40;61.80;;;;;;10374574;28;20018;-55
2023/04/27 11:38:58;;;;;;;4.32;1.63;;;15.40;61.70;;;;;;10362370;28;20018;-54
2023/04/27 11:44:07;;;;;;;2.05;1.40;;;15.40;61.70;;;;;;10361747;28;20084;-53
2023/04/27 11:49:08;;;;;;;;;;;15.40;61.70;;;;;;10362888;28;20056;-54
2023/04/27 11:54:09;;;;;;;2.78;1.50;;;15.50;61.80;;;;;;10369706;28;19901;-51
2023/04/27 11:59:26;;;;;;;2.80;1.27;;;15.40;61.80;;;;;;10395124;28;20026;-55
2023/04/27 12:04:29;;;;;;;2.95;1.17;;;15.50;61.80;;;;;;10398452;28;20037;-53
2023/04/27 12:09:30;;;;;;;3.42;1.70;;;15.50;61.80;;;;;;10410255;28;20033;-54
2023/04/27 12:14:30;;;;;;;3.08;1.50;;;15.50;61.70;;;;;;10409624;28;20477;-54
2023/04/27 12:19:31;;;;;;;1.52;1.08;;;15.60;61.90;;;;;;10409684;28;20021;-53
2023/04/27 12:24:32;;;;;;;1.92;1.02;;;15.50;61.80;;;;;;10401030;28;20116;-55
2023/04/27 12:29:32;;;;;;;3.35;1.42;;;15.60;61.80;;;;;;10368293;28;20129;-54
2023/04/27 12:34:34;;;;;;;2.17;1.10;;;15.60;61.90;;;;;;10373198;28;20756;-54
2023/04/27 12:39:35;;;;;;;1.92;1.45;;;15.60;61.80;;;;;;10369655;28;20110;-55
2023/04/27 12:44:36;;;;;;;3.42;1.40;;;15.60;61.70;;;;;;10368940;28;20041;-55
2023/04/27 12:49:36;;;;;;;5.75;1.60;;;15.70;61.20;;;;;;10369525;28;20034;-53
2023/04/27 12:54:37;;;;;;;8.98;2.30;;;15.70;60.30;;;;;;10378706;28;20036;-50
2023/04/27 12:59:38;;;;;;;8.23;2.00;;;15.70;59.90;;;;;;10379576;28;20034;-55
2023/04/27 13:04:40;;;;;;;5.95;2.30;;;15.80;59.30;;;;;;10370155;28;20552;-55
2023/04/27 13:09:41;;;;;;;8.52;3.38;;;15.90;58.50;;;;;;10409521;28;20041;-52
2023/04/27 13:14:44;;;;;;;9.02;2.92;;;15.90;58.40;;;;;;10392463;28;20053;-54
2023/04/27 13:19:45;;;;;;;6.80;2.75;;;15.90;58.00;;;;;;10384407;28;20018;-55
2023/04/27 13:24:46;;;;;;;8.52;3.00;;;15.80;56.40;;;;;;10368596;28;20029;-54
2023/04/27 13:29:48;;;;;;;7.57;2.88;;;15.80;55.40;;;;;;10388641;28;20084;-54
2023/04/27 13:34:49;;;;;;;5.68;3.40;;;15.80;54.90;;;;;;10384952;28;20634;-53
2023/04/27 13:39:49;;;;;;;5.70;3.00;;;15.80;53.80;;;;;;10376698;28;20033;-50
2023/04/27 13:44:50;;;;;;;8.05;3.58;;;15.80;53.10;;;;;;10367930;28;20452;-54
2023/04/27 13:49:51;;;;;;;8.20;3.10;;;15.90;52.40;;;;;;10367320;28;20113;-55
2023/04/27 13:54:52;;;;;;;14.63;4.18;;;15.80;51.80;;;;;;10378834;28;20171;-54
2023/04/27 13:59:52;;;;;;;18.08;4.43;;;15.80;50.90;;;;;;10382741;28;20053;-54
2023/04/27 14:04:53;;;;;;;12.63;3.38;;;15.70;51.00;;;;;;10362525;28;20056;-53
2023/04/27 14:09:54;;;;;;;8.13;2.95;;;15.70;51.50;;;;;;10362976;28;20032;-51
2023/04/27 14:14:55;;;;;;;11.82;3.22;;;15.70;52.20;;;;;;10360519;28;20037;-53
2023/04/27 14:19:55;;;;;;;11.57;3.13;;;15.70;52.70;;;;;;10361948;28;20104;-52
2023/04/27 14:24:56;;;;;;;7.18;2.90;;;15.70;53.30;;;;;;10362716;28;20109;-54
2023/04/27 14:29:57;;;;;;;6.85;2.47;;;15.70;53.80;;;;;;10392119;28;20095;-54
2023/04/27 14:34:57;;;;;;;6.45;2.63;;;15.70;54.20;;;;;;10363818;28;20022;-54
2023/04/27 14:39:59;;;;;;;6.10;2.88;;;15.70;54.60;;;;;;10363613;28;20414;-53
2023/04/27 14:45:00;;;;;;;12.70;3.40;;;15.70;54.80;;;;;;10363272;28;20535;-52
2023/04/27 14:50:00;;;;;;;9.25;2.63;;;15.60;55.20;;;;;;10363320;28;20087;-53
2023/04/27 14:55:01;;;;;;;4.68;2.17;;;15.70;55.40;;;;;;10363075;28;20042;-53
2023/04/27 15:00:08;;;;;;;3.15;2.17;;;15.70;55.70;;;;;;10372402;28;20050;-53
2023/04/27 15:05:09;;;;;;;5.05;2.97;;;15.70;55.90;;;;;;10362511;28;20068;-52
2023/04/27 15:10:09;;;;;;;5.32;2.13;;;15.70;56.20;;;;;;10362700;28;20034;-53
2023/04/27 15:15:11;;;;;;;3.53;2.13;;;15.60;56.40;;;;;;10361454;28;20014;-54
2023/04/27 15:20:12;;;;;;;4.05;2.15;;;15.70;56.60;;;;;;10362464;28;20116;-53
2023/04/27 15:25:13;;;;;;;3.78;1.90;;;15.60;56.70;;;;;;10362575;28;20022;-53
2023/04/27 15:30:14;;;;;;;3.47;2.45;;;15.60;57.00;;;;;;10376506;28;20108;-51
2023/04/27 15:35:15;;;;;;;3.90;1.95;;;15.60;57.20;;;;;;10362224;28;20092;-54
2023/04/27 15:40:16;;;;;;;3.28;1.95;;;15.60;57.30;;;;;;10361786;28;20452;-54
2023/04/27 15:45:17;;;;;;;3.75;1.90;;;15.50;57.50;;;;;;10360580;28;20032;-53
2023/04/27 15:50:17;;;;;;;4.32;2.00;;;15.50;57.70;;;;;;10373219;28;20030;-55
2023/04/27 15:55:18;;;;;;;2.80;1.67;;;15.50;57.80;;;;;;10361677;28;20026;-53
2023/04/27 16:00:21;;;;;;;2.90;1.70;;;15.50;58.00;;;;;;10371748;28;20393;-54
2023/04/27 16:05:21;;;;;;;5.53;2.03;;;15.50;58.20;;;;;;10361277;28;20050;-52
2023/04/27 16:10:22;;;;;;;3.38;1.60;;;15.50;58.20;;;;;;10360984;28;20112;-53
2023/04/27 16:15:23;;;;;;;2.15;1.35;;;15.40;58.30;;;;;;10362795;28;20026;-54
2023/04/27 16:20:24;;;;;;;3.30;1.90;;;15.50;58.40;;;;;;10361096;28;20048;-55
2023/04/27 16:25:25;;;;;;;4.43;2.13;;;15.50;58.50;;;;;;10381391;28;20111;-54
2023/04/27 16:30:26;;;;;;;4.07;1.77;;;15.60;57.70;;;;;;10376159;28;20525;-54
2023/04/27 16:35:28;;;;;;;3.15;1.65;;;15.80;57.50;;;;;;10368870;28;20106;-54
2023/04/27 16:40:28;;;;;;;3.38;2.28;;;15.80;58.30;;;;;;10385674;28;20544;-53
2023/04/27 16:45:29;;;;;;;2.95;1.52;;;15.80;58.50;;;;;;10390206;28;20173;-55
2023/04/27 16:50:30;;;;;;;4.40;2.20;;;16.00;59.00;;;;;;10372563;28;20669;-56
2023/04/27 16:55:31;;;;;;;4.40;2.08;;;16.00;60.10;;;;;;10370138;28;20688;-56
2023/04/27 17:00:32;;;;;;;4.88;2.67;;;16.10;60.00;;;;;;10388984;28;20037;-56
2023/04/27 17:05:33;;;;;;;4.90;2.17;;;16.20;61.30;;;;;;10396345;28;20167;-55
2023/04/27 17:10:35;;;;;;;6.22;2.47;;;16.50;60.30;;;;;;10378897;28;20120;-56
2023/04/27 17:15:36;;;;;;;3.40;1.50;;;16.60;60.00;;;;;;10381999;28;20389;-54
2023/04/27 17:20:36;;;;;;;3.47;1.90;;;16.50;61.00;;;;;;10369150;28;20050;-55
2023/04/27 17:25:37;;;;;;;4.03;1.88;;;16.20;61.40;;;;;;10368462;28;20118;-54
2023/04/27 17:30:39;;;;;;;3.50;1.95;;;16.10;61.50;;;;;;10395518;28;20436;-55
2023/04/27 17:35:43;;;;;;;11.48;2.25;;;16.00;61.50;;;;;;10384443;28;20498;-56
2023/04/27 17:40:43;;;;;;;6.97;2.55;;;15.90;61.60;;;;;;10387414;28;20021;-56
2023/04/27 17:45:44;;;;;;;3.00;1.50;;;15.80;61.20;;;;;;10386557;28;20015;-56
2023/04/27 17:50:45;;;;;;;4.30;2.15;;;15.80;61.60;;;;;;10398569;28;20097;-56
2023/04/27 17:55:46;;;;;;;3.40;1.70;;;15.70;61.30;;;;;;10375437;28;20121;-56
2023/04/27 18:00:47;;;;;;;3.85;2.15;;;15.70;61.20;;;;;;10407645;28;20090;-55
2023/04/27 18:05:47;;;;;;;5.38;2.17;;;15.60;61.10;;;;;;10406180;28;20073;-55
2023/04/27 18:10:48;;;;;;;5.60;2.28;;;15.60;61.20;;;;;;10406545;28;20124;-56
2023/04/27 18:15:49;;;;;;;4.28;2.38;;;15.60;61.20;;;;;;10405617;28;20457;-56
2023/04/27 18:20:49;;;;;;;3.63;1.70;;;15.50;61.20;;;;;;10393291;28;20041;-55
2023/04/27 18:25:50;;;;;;;3.20;1.23;;;15.50;61.10;;;;;;10393991;28;20441;-55
2023/04/27 18:30:51;;;;;;;3.78;1.73;;;15.50;60.90;;;;;;10407128;28;20037;-56
2023/04/27 18:35:52;;;;;;;2.88;1.77;;;15.40;61.40;;;;;;10400721;28;20045;-54
2023/04/27 18:40:52;;;;;;;4.88;2.15;;;15.40;61.40;;;;;;10404752;28;20092;-56
2023/04/27 18:45:53;;;;;;;3.13;1.60;;;15.50;61.30;;;;;;10405524;28;20021;-55
2023/04/27 18:50:54;;;;;;;5.78;2.00;;;15.50;61.10;;;;;;10403427;28;20108;-51
2023/04/27 18:55:54;;;;;;;4.82;1.92;;;15.60;61.10;;;;;;10405378;28;20029;-55
2023/04/27 19:00:55;;;;;;;3.70;1.85;;;15.60;61.40;;;;;;10399928;28;20029;-55
2023/04/27 19:05:56;;;;;;;3.90;1.98;;;15.50;61.20;;;;;;10405752;28;20103;-55
2023/04/27 19:10:56;;;;;;;2.90;1.83;;;15.50;61.30;;;;;;10404958;28;20117;-53
2023/04/27 19:15:58;;;;;;;3.67;2.33;;;15.50;61.10;;;;;;10405678;28;20461;-53
2023/04/27 19:20:58;;;;;;;3.40;1.70;;;15.50;61.20;;;;;;10401670;28;20079;-54
2023/04/27 19:25:59;;;;;;;3.38;1.75;;;15.50;61.30;;;;;;10391637;28;20064;-53
2023/04/27 19:31:00;;;;;;;3.47;1.95;;;15.40;61.30;;;;;;10406017;28;20131;-54
2023/04/27 19:36:00;;;;;;;3.30;1.80;;;15.40;61.30;;;;;;10404979;28;20105;-51
2023/04/27 19:41:03;;;;;;;2.83;1.55;;;15.40;61.60;;;;;;10402781;28;20173;-54
2023/04/27 19:46:03;;;;;;;3.28;1.75;;;15.40;61.50;;;;;;10402271;28;20029;-54
2023/04/27 19:51:08;;;;;;;4.18;2.10;;;15.40;61.70;;;;;;10404148;28;20448;-51
2023/04/27 19:56:08;;;;;;;5.00;2.00;;;15.30;61.70;;;;;;10404321;28;20121;-54
2023/04/27 20:01:09;;;;;;;2.83;1.77;;;15.30;61.70;;;;;;10402348;28;20711;-51
2023/04/27 20:06:09;;;;;;;2.90;1.90;;;15.30;61.70;;;;;;10400784;28;20140;-54
2023/04/27 20:11:11;;;;;;;3.90;2.55;;;15.30;61.80;;;;;;10399686;28;20048;-51
2023/04/27 20:16:11;;;;;;;2.65;1.60;;;15.30;61.90;;;;;;10408164;28;20025;-52
2023/04/27 20:21:12;;;;;;;6.20;2.10;;;15.20;61.90;;;;;;10408326;28;20803;-54
2023/04/27 20:26:13;;;;;;;3.85;1.60;;;15.20;62.00;;;;;;10410001;28;20047;-53
2023/04/27 20:31:14;;;;;;;3.80;2.20;;;15.20;62.00;;;;;;10428350;28;20033;-53
2023/04/27 20:36:16;;;;;;;2.95;1.45;;;15.20;62.00;;;;;;10411585;28;20016;-55
2023/04/27 20:41:16;;;;;;;2.80;1.83;;;15.20;62.00;;;;;;10411329;28;20400;-54
2023/04/27 20:46:17;;;;;;;2.63;1.80;;;15.20;62.00;;;;;;10410971;28;20109;-53
2023/04/27 20:51:18;;;;;;;2.15;1.30;;;15.20;62.00;;;;;;10411088;28;20557;-55
2023/04/27 20:56:19;;;;;;;2.10;1.60;;;15.20;62.10;;;;;;10409732;28;20045;-55
2023/04/27 21:01:19;;;;;;;2.47;1.25;;;15.20;62.10;;;;;;10411301;28;20105;-54
2023/04/27 21:06:20;;;;;;;3.67;1.45;;;15.20;62.10;;;;;;10410276;28;20132;-51
2023/04/27 21:11:21;;;;;;;2.65;1.65;;;15.20;62.10;;;;;;10410266;28;20155;-55
2023/04/27 21:16:22;;;;;;;2.53;1.85;;;15.10;62.00;;;;;;10409985;28;20100;-53
2023/04/27 21:21:23;;;;;;;1.38;1.15;;;15.10;62.10;;;;;;10409816;28;20032;-52
2023/04/27 21:26:24;;;;;;;1.52;0.90;;;15.10;62.10;;;;;;10394925;28;20014;-50
2023/04/27 21:31:24;;;;;;;1.88;1.40;;;15.10;62.00;;;;;;10411058;28;20059;-55
2023/04/27 21:36:25;;;;;;;2.85;1.08;;;15.10;62.00;;;;;;10409278;28;20041;-53
2023/04/27 21:41:26;;;;;;;2.08;1.10;;;15.10;62.10;;;;;;10408500;28;20113;-53
2023/04/27 21:46:26;;;;;;;1.80;1.00;;;15.10;62.20;;;;;;10408475;28;20148;-53
2023/04/27 21:51:27;;;;;;;1.83;1.00;;;15.10;62.10;;;;;;10407197;28;20116;-53
2023/04/27 21:56:28;;;;;;;1.77;1.00;;;15.00;62.10;;;;;;10407544;28;20028;-54
2023/04/27 22:01:29;;;;;;;1.50;1.02;;;15.00;62.00;;;;;;10408017;28;20505;-49
2023/04/27 22:06:32;;;;;;;1.40;1.15;;;15.00;62.10;;;;;;10407693;28;20041;-55
2023/04/27 22:11:32;;;;;;;8.50;1.65;;;15.00;62.00;;;;;;10408182;28;20022;-52
2023/04/27 22:16:33;;;;;;;1.60;1.00;;;15.00;62.00;;;;;;10407592;28;20093;-51
2023/04/27 22:21:34;;;;;;;1.60;1.20;;;15.00;62.20;;;;;;10407509;28;20100;-50
2023/04/27 22:26:34;;;;;;;1.98;1.30;;;15.00;62.00;;;;;;10405720;28;20113;-53
2023/04/27 22:31:35;;;;;;;1.83;1.00;;;15.00;62.20;;;;;;10408074;28;20101;-52
2023/04/27 22:36:36;;;;;;;1.92;1.30;;;15.00;62.00;;;;;;10405371;28;20034;-52
2023/04/27 22:41:37;;;;;;;2.30;1.50;;;15.00;61.90;;;;;;10405645;28;20044;-53
2023/04/27 22:46:38;;;;;;;1.67;1.10;;;15.00;62.10;;;;;;10405266;28;20082;-51
2023/04/27 22:51:38;;;;;;;2.72;1.30;;;15.00;62.10;;;;;;10406624;28;20048;-51
2023/04/27 22:56:39;;;;;;;2.13;1.55;;;15.00;62.00;;;;;;10401624;28;20045;-53
2023/04/27 23:01:40;;;;;;;2.05;1.40;;;14.90;62.00;;;;;;10404634;28;20013;-54
2023/04/27 23:06:41;;;;;;;2.65;1.63;;;15.00;62.00;;;;;;10405618;28;20041;-53
2023/04/27 23:11:41;;;;;;;2.47;1.75;;;15.00;62.10;;;;;;10405570;28;20664;-55
2023/04/27 23:16:45;;;;;;;1.80;1.45;;;15.00;62.00;;;;;;10405107;28;20266;-53
2023/04/27 23:21:45;;;;;;;1.30;0.80;;;15.00;62.10;;;;;;10405393;28;20079;-53
2023/04/27 23:26:46;;;;;;;4.05;1.73;;;14.90;62.00;;;;;;10404719;28;20108;-53
2023/04/27 23:31:47;;;;;;;2.30;1.50;;;14.90;62.00;;;;;;10406136;28;20078;-54
2023/04/27 23:36:47;;;;;;;1.45;1.13;;;14.90;61.90;;;;;;10405145;28;20108;-52
2023/04/27 23:41:48;;;;;;;1.85;1.40;;;14.90;62.00;;;;;;10404783;28;20121;-54
2023/04/27 23:46:48;;;;;;;2.85;1.75;;;14.90;61.90;;;;;;10406938;28;20112;-54
2023/04/27 23:51:51;;;;;;;3.00;2.08;;;14.90;62.00;;;;;;10411386;28;20462;-52
2023/04/27 23:56:52;;;;;;;2.40;1.42;;;14.90;61.90;;;;;;10413224;28;20026;-52
